sensor_id;sensor_type;location;lat;lon;timestamp;P1;durP1;ratioP1;P2;durP2;ratioP2
65831;SDS011;52593;42.648;23.332;2023-01-25T00:00:20;9.73;;;3.40;;
65831;SDS011;52593;42.648;23.332;2023-01-25T00:02:45;8.47;;;2.90;;
65831;SDS011;52593;42.648;23.332;2023-01-25T00:05:11;10.73;;;3.73;;
65831;SDS011;52593;42.648;23.332;2023-01-25T00:07:36;10.82;;;3.50;;
65831;SDS011;52593;42.648;23.332;2023-01-25T00:10:02;11.80;;;3.47;;
65831;SDS011;52593;42.648;23.332;2023-01-25T00:12:28;8.35;;;3.00;;
65831;SDS011;52593;42.648;23.332;2023-01-25T00:14:53;8.13;;;2.80;;
65831;SDS011;52593;42.648;23.332;2023-01-25T00:17:18;8.90;;;3.17;;
65831;SDS011;52593;42.648;23.332;2023-01-25T00:19:44;8.23;;;3.30;;
65831;SDS011;52593;42.648;23.332;2023-01-25T00:22:09;8.17;;;3.10;;
65831;SDS011;52593;42.648;23.332;2023-01-25T00:24:35;8.10;;;3.23;;
65831;SDS011;52593;42.648;23.332;2023-01-25T00:27:01;8.93;;;3.40;;
65831;SDS011;52593;42.648;23.332;2023-01-25T00:29:26;8.35;;;3.03;;
65831;SDS011;52593;42.648;23.332;2023-01-25T00:39:42;8.73;;;3.20;;
65831;SDS011;52593;42.648;23.332;2023-01-25T00:42:11;9.23;;;3.45;;
65831;SDS011;52593;42.648;23.332;2023-01-25T00:44:38;10.55;;;3.45;;
65831;SDS011;52593;42.648;23.332;2023-01-25T00:47:04;9.53;;;2.83;;
65831;SDS011;52593;42.648;23.332;2023-01-25T00:49:30;10.05;;;3.70;;
65831;SDS011;52593;42.648;23.332;2023-01-25T00:51:57;9.55;;;2.97;;
65831;SDS011;52593;42.648;23.332;2023-01-25T00:54:23;10.15;;;3.67;;
65831;SDS011;52593;42.648;23.332;2023-01-25T00:56:48;11.63;;;3.77;;
65831;SDS011;52593;42.648;23.332;2023-01-25T00:59:16;9.07;;;3.35;;
65831;SDS011;52593;42.648;23.332;2023-01-25T01:01:42;11.37;;;3.80;;
65831;SDS011;52593;42.648;23.332;2023-01-25T01:04:07;10.00;;;3.60;;
65831;SDS011;52593;42.648;23.332;2023-01-25T01:06:36;10.57;;;3.60;;
65831;SDS011;52593;42.648;23.332;2023-01-25T01:09:03;8.43;;;3.22;;
65831;SDS011;52593;42.648;23.332;2023-01-25T01:11:30;9.90;;;3.55;;
65831;SDS011;52593;42.648;23.332;2023-01-25T01:13:56;10.10;;;3.70;;
65831;SDS011;52593;42.648;23.332;2023-01-25T01:16:22;11.30;;;3.58;;
65831;SDS011;52593;42.648;23.332;2023-01-25T01:18:47;9.03;;;3.20;;
65831;SDS011;52593;42.648;23.332;2023-01-25T01:21:13;9.50;;;3.30;;
65831;SDS011;52593;42.648;23.332;2023-01-25T01:23:39;11.05;;;3.80;;
65831;SDS011;52593;42.648;23.332;2023-01-25T01:26:06;9.85;;;3.58;;
65831;SDS011;52593;42.648;23.332;2023-01-25T01:28:33;9.93;;;3.60;;
65831;SDS011;52593;42.648;23.332;2023-01-25T01:31:04;8.73;;;3.05;;
65831;SDS011;52593;42.648;23.332;2023-01-25T01:33:31;10.03;;;3.50;;
65831;SDS011;52593;42.648;23.332;2023-01-25T01:35:56;10.20;;;3.30;;
65831;SDS011;52593;42.648;23.332;2023-01-25T01:38:22;10.30;;;2.90;;
65831;SDS011;52593;42.648;23.332;2023-01-25T01:40:48;9.32;;;3.00;;
65831;SDS011;52593;42.648;23.332;2023-01-25T01:43:16;9.10;;;3.03;;
65831;SDS011;52593;42.648;23.332;2023-01-25T01:45:50;8.60;;;2.70;;
65831;SDS011;52593;42.648;23.332;2023-01-25T01:51:23;7.78;;;2.53;;
65831;SDS011;52593;42.648;23.332;2023-01-25T01:56:49;8.13;;;3.00;;
65831;SDS011;52593;42.648;23.332;2023-01-25T01:59:20;8.85;;;3.00;;
65831;SDS011;52593;42.648;23.332;2023-01-25T02:01:49;9.25;;;3.28;;
65831;SDS011;52593;42.648;23.332;2023-01-25T02:04:14;9.83;;;3.00;;
65831;SDS011;52593;42.648;23.332;2023-01-25T02:06:48;9.80;;;3.17;;
65831;SDS011;52593;42.648;23.332;2023-01-25T02:09:20;8.40;;;2.75;;
65831;SDS011;52593;42.648;23.332;2023-01-25T02:11:49;9.35;;;2.97;;
65831;SDS011;52593;42.648;23.332;2023-01-25T02:14:16;7.10;;;2.58;;
65831;SDS011;52593;42.648;23.332;2023-01-25T02:16:41;9.17;;;2.90;;
65831;SDS011;52593;42.648;23.332;2023-01-25T02:19:07;7.70;;;2.50;;
65831;SDS011;52593;42.648;23.332;2023-01-25T02:21:38;9.57;;;2.63;;
65831;SDS011;52593;42.648;23.332;2023-01-25T02:24:09;8.03;;;2.60;;
65831;SDS011;52593;42.648;23.332;2023-01-25T02:26:42;9.05;;;2.50;;
65831;SDS011;52593;42.648;23.332;2023-01-25T02:29:07;7.37;;;2.23;;
65831;SDS011;52593;42.648;23.332;2023-01-25T02:31:34;7.53;;;2.50;;
65831;SDS011;52593;42.648;23.332;2023-01-25T02:33:59;7.50;;;2.60;;
65831;SDS011;52593;42.648;23.332;2023-01-25T02:36:29;6.50;;;2.03;;
65831;SDS011;52593;42.648;23.332;2023-01-25T02:43:58;7.57;;;1.80;;
65831;SDS011;52593;42.648;23.332;2023-01-25T02:46:29;7.13;;;1.73;;
65831;SDS011;52593;42.648;23.332;2023-01-25T02:48:57;6.13;;;2.08;;
65831;SDS011;52593;42.648;23.332;2023-01-25T02:51:24;7.35;;;1.90;;
65831;SDS011;52593;42.648;23.332;2023-01-25T02:53:51;6.82;;;2.10;;
65831;SDS011;52593;42.648;23.332;2023-01-25T02:56:19;6.23;;;2.00;;
65831;SDS011;52593;42.648;23.332;2023-01-25T02:58:44;8.18;;;2.40;;
65831;SDS011;52593;42.648;23.332;2023-01-25T03:01:11;6.13;;;2.03;;
65831;SDS011;52593;42.648;23.332;2023-01-25T03:03:37;6.05;;;2.00;;
65831;SDS011;52593;42.648;23.332;2023-01-25T03:06:03;7.70;;;1.80;;
65831;SDS011;52593;42.648;23.332;2023-01-25T03:08:29;7.95;;;2.05;;
65831;SDS011;52593;42.648;23.332;2023-01-25T03:10:55;6.90;;;2.05;;
65831;SDS011;52593;42.648;23.332;2023-01-25T03:13:25;5.30;;;1.57;;
65831;SDS011;52593;42.648;23.332;2023-01-25T03:15:51;6.82;;;2.05;;
65831;SDS011;52593;42.648;23.332;2023-01-25T03:18:17;6.53;;;2.13;;
65831;SDS011;52593;42.648;23.332;2023-01-25T03:20:43;7.82;;;1.95;;
65831;SDS011;52593;42.648;23.332;2023-01-25T03:23:08;7.17;;;2.07;;
65831;SDS011;52593;42.648;23.332;2023-01-25T03:25:33;7.23;;;2.30;;
65831;SDS011;52593;42.648;23.332;2023-01-25T03:27:59;6.23;;;1.83;;
65831;SDS011;52593;42.648;23.332;2023-01-25T03:30:24;5.60;;;1.77;;
65831;SDS011;52593;42.648;23.332;2023-01-25T03:32:50;8.20;;;2.13;;
65831;SDS011;52593;42.648;23.332;2023-01-25T03:35:16;10.10;;;2.40;;
65831;SDS011;52593;42.648;23.332;2023-01-25T03:37:42;6.37;;;2.10;;
65831;SDS011;52593;42.648;23.332;2023-01-25T03:40:08;6.33;;;2.10;;
65831;SDS011;52593;42.648;23.332;2023-01-25T03:42:34;7.63;;;2.60;;
65831;SDS011;52593;42.648;23.332;2023-01-25T03:44:59;7.82;;;2.47;;
65831;SDS011;52593;42.648;23.332;2023-01-25T03:47:25;8.57;;;2.80;;
65831;SDS011;52593;42.648;23.332;2023-01-25T03:49:50;7.50;;;2.67;;
65831;SDS011;52593;42.648;23.332;2023-01-25T03:52:15;7.73;;;2.30;;
65831;SDS011;52593;42.648;23.332;2023-01-25T03:54:41;11.00;;;2.30;;
65831;SDS011;52593;42.648;23.332;2023-01-25T03:57:06;8.17;;;2.60;;
65831;SDS011;52593;42.648;23.332;2023-01-25T03:59:32;7.28;;;2.35;;
65831;SDS011;52593;42.648;23.332;2023-01-25T04:01:57;7.57;;;2.70;;
65831;SDS011;52593;42.648;23.332;2023-01-25T04:04:23;9.60;;;2.63;;
65831;SDS011;52593;42.648;23.332;2023-01-25T04:06:48;7.47;;;2.67;;
65831;SDS011;52593;42.648;23.332;2023-01-25T04:09:13;8.00;;;2.60;;
65831;SDS011;52593;42.648;23.332;2023-01-25T04:11:39;6.83;;;2.37;;
65831;SDS011;52593;42.648;23.332;2023-01-25T04:14:04;8.10;;;2.50;;
65831;SDS011;52593;42.648;23.332;2023-01-25T04:16:30;8.80;;;2.28;;
65831;SDS011;52593;42.648;23.332;2023-01-25T04:18:55;8.73;;;2.57;;
65831;SDS011;52593;42.648;23.332;2023-01-25T04:21:21;6.93;;;2.33;;
65831;SDS011;52593;42.648;23.332;2023-01-25T04:23:47;8.23;;;2.60;;
65831;SDS011;52593;42.648;23.332;2023-01-25T04:26:12;7.00;;;2.43;;
65831;SDS011;52593;42.648;23.332;2023-01-25T04:28:38;8.23;;;2.47;;
65831;SDS011;52593;42.648;23.332;2023-01-25T04:31:03;8.10;;;2.63;;
65831;SDS011;52593;42.648;23.332;2023-01-25T04:33:30;7.10;;;2.60;;
65831;SDS011;52593;42.648;23.332;2023-01-25T04:35:56;6.63;;;2.40;;
65831;SDS011;52593;42.648;23.332;2023-01-25T04:38:22;6.82;;;2.28;;
65831;SDS011;52593;42.648;23.332;2023-01-25T04:40:47;7.43;;;2.30;;
65831;SDS011;52593;42.648;23.332;2023-01-25T04:43:13;7.70;;;2.60;;
65831;SDS011;52593;42.648;23.332;2023-01-25T04:45:40;6.87;;;1.70;;
65831;SDS011;52593;42.648;23.332;2023-01-25T04:48:06;8.88;;;2.17;;
65831;SDS011;52593;42.648;23.332;2023-01-25T04:50:37;5.80;;;1.73;;
65831;SDS011;52593;42.648;23.332;2023-01-25T04:53:06;5.90;;;1.90;;
65831;SDS011;52593;42.648;23.332;2023-01-25T04:55:33;8.40;;;2.28;;
65831;SDS011;52593;42.648;23.332;2023-01-25T04:57:59;6.40;;;1.63;;
65831;SDS011;52593;42.648;23.332;2023-01-25T05:00:25;7.20;;;1.80;;
65831;SDS011;52593;42.648;23.332;2023-01-25T05:02:50;5.78;;;1.88;;
65831;SDS011;52593;42.648;23.332;2023-01-25T05:05:16;5.70;;;1.60;;
65831;SDS011;52593;42.648;23.332;2023-01-25T05:07:41;5.33;;;2.00;;
65831;SDS011;52593;42.648;23.332;2023-01-25T05:10:07;7.60;;;2.27;;
65831;SDS011;52593;42.648;23.332;2023-01-25T05:12:33;5.68;;;1.70;;
65831;SDS011;52593;42.648;23.332;2023-01-25T05:14:58;5.90;;;1.73;;
65831;SDS011;52593;42.648;23.332;2023-01-25T05:17:24;5.73;;;2.00;;
65831;SDS011;52593;42.648;23.332;2023-01-25T05:19:49;6.40;;;2.13;;
65831;SDS011;52593;42.648;23.332;2023-01-25T05:22:15;7.27;;;1.80;;
65831;SDS011;52593;42.648;23.332;2023-01-25T05:24:42;5.75;;;2.05;;
65831;SDS011;52593;42.648;23.332;2023-01-25T05:27:09;7.03;;;1.83;;
65831;SDS011;52593;42.648;23.332;2023-01-25T05:29:37;7.80;;;2.45;;
65831;SDS011;52593;42.648;23.332;2023-01-25T05:32:08;6.03;;;2.08;;
65831;SDS011;52593;42.648;23.332;2023-01-25T05:34:35;6.22;;;2.20;;
65831;SDS011;52593;42.648;23.332;2023-01-25T05:37:01;7.85;;;2.35;;
65831;SDS011;52593;42.648;23.332;2023-01-25T05:39:28;5.23;;;2.03;;
65831;SDS011;52593;42.648;23.332;2023-01-25T05:41:54;6.07;;;1.52;;
65831;SDS011;52593;42.648;23.332;2023-01-25T05:44:19;4.90;;;1.63;;
65831;SDS011;52593;42.648;23.332;2023-01-25T05:46:45;5.28;;;1.83;;
65831;SDS011;52593;42.648;23.332;2023-01-25T05:49:10;5.37;;;1.70;;
65831;SDS011;52593;42.648;23.332;2023-01-25T05:51:36;6.37;;;1.50;;
65831;SDS011;52593;42.648;23.332;2023-01-25T05:54:03;5.47;;;1.85;;
65831;SDS011;52593;42.648;23.332;2023-01-25T05:56:29;7.32;;;2.40;;
65831;SDS011;52593;42.648;23.332;2023-01-25T05:58:56;6.57;;;2.00;;
65831;SDS011;52593;42.648;23.332;2023-01-25T06:01:22;6.60;;;2.38;;
65831;SDS011;52593;42.648;23.332;2023-01-25T06:03:48;7.78;;;2.50;;
65831;SDS011;52593;42.648;23.332;2023-01-25T06:06:14;7.97;;;2.50;;
65831;SDS011;52593;42.648;23.332;2023-01-25T06:08:39;7.07;;;2.35;;
65831;SDS011;52593;42.648;23.332;2023-01-25T06:11:05;6.13;;;2.10;;
65831;SDS011;52593;42.648;23.332;2023-01-25T06:13:35;6.90;;;2.10;;
65831;SDS011;52593;42.648;23.332;2023-01-25T06:16:00;7.97;;;2.47;;
65831;SDS011;52593;42.648;23.332;2023-01-25T06:18:27;6.43;;;2.15;;
65831;SDS011;52593;42.648;23.332;2023-01-25T06:20:57;9.70;;;2.95;;
65831;SDS011;52593;42.648;23.332;2023-01-25T06:23:23;7.70;;;2.60;;
65831;SDS011;52593;42.648;23.332;2023-01-25T06:25:49;6.88;;;2.50;;
65831;SDS011;52593;42.648;23.332;2023-01-25T06:28:15;7.43;;;2.73;;
65831;SDS011;52593;42.648;23.332;2023-01-25T06:30:40;6.20;;;2.47;;
65831;SDS011;52593;42.648;23.332;2023-01-25T06:33:05;6.53;;;1.90;;
65831;SDS011;52593;42.648;23.332;2023-01-25T06:35:31;8.80;;;2.50;;
65831;SDS011;52593;42.648;23.332;2023-01-25T06:37:58;7.90;;;2.80;;
65831;SDS011;52593;42.648;23.332;2023-01-25T06:40:24;8.15;;;2.88;;
65831;SDS011;52593;42.648;23.332;2023-01-25T06:42:50;8.33;;;2.63;;
65831;SDS011;52593;42.648;23.332;2023-01-25T06:45:16;8.88;;;3.42;;
65831;SDS011;52593;42.648;23.332;2023-01-25T06:47:42;7.77;;;3.00;;
65831;SDS011;52593;42.648;23.332;2023-01-25T06:50:08;7.53;;;3.10;;
65831;SDS011;52593;42.648;23.332;2023-01-25T06:52:34;8.48;;;3.15;;
65831;SDS011;52593;42.648;23.332;2023-01-25T06:55:03;7.97;;;3.33;;
65831;SDS011;52593;42.648;23.332;2023-01-25T06:57:31;11.13;;;3.40;;
65831;SDS011;52593;42.648;23.332;2023-01-25T06:59:56;8.32;;;3.15;;
65831;SDS011;52593;42.648;23.332;2023-01-25T07:02:22;9.20;;;3.43;;
65831;SDS011;52593;42.648;23.332;2023-01-25T07:04:47;10.07;;;3.30;;
65831;SDS011;52593;42.648;23.332;2023-01-25T07:07:12;10.87;;;4.10;;
65831;SDS011;52593;42.648;23.332;2023-01-25T07:09:38;9.50;;;3.33;;
65831;SDS011;52593;42.648;23.332;2023-01-25T07:12:03;8.00;;;3.20;;
65831;SDS011;52593;42.648;23.332;2023-01-25T07:14:29;9.00;;;3.57;;
65831;SDS011;52593;42.648;23.332;2023-01-25T07:16:55;9.55;;;3.60;;
65831;SDS011;52593;42.648;23.332;2023-01-25T07:19:21;9.23;;;3.30;;
65831;SDS011;52593;42.648;23.332;2023-01-25T07:21:46;8.43;;;2.97;;
65831;SDS011;52593;42.648;23.332;2023-01-25T07:24:15;8.73;;;3.67;;
65831;SDS011;52593;42.648;23.332;2023-01-25T07:26:42;8.70;;;3.53;;
65831;SDS011;52593;42.648;23.332;2023-01-25T07:29:12;9.30;;;3.80;;
65831;SDS011;52593;42.648;23.332;2023-01-25T07:31:39;8.18;;;3.20;;
65831;SDS011;52593;42.648;23.332;2023-01-25T07:34:05;9.30;;;3.70;;
65831;SDS011;52593;42.648;23.332;2023-01-25T07:36:32;8.82;;;3.38;;
65831;SDS011;52593;42.648;23.332;2023-01-25T07:38:58;9.77;;;4.20;;
65831;SDS011;52593;42.648;23.332;2023-01-25T07:41:23;9.88;;;3.70;;
65831;SDS011;52593;42.648;23.332;2023-01-25T07:43:50;9.40;;;3.77;;
65831;SDS011;52593;42.648;23.332;2023-01-25T07:46:16;8.55;;;3.50;;
65831;SDS011;52593;42.648;23.332;2023-01-25T07:48:46;10.77;;;4.03;;
65831;SDS011;52593;42.648;23.332;2023-01-25T07:51:12;10.30;;;4.25;;
65831;SDS011;52593;42.648;23.332;2023-01-25T07:53:48;10.70;;;4.13;;
65831;SDS011;52593;42.648;23.332;2023-01-25T07:56:16;10.43;;;3.80;;
65831;SDS011;52593;42.648;23.332;2023-01-25T07:58:43;11.02;;;4.28;;
65831;SDS011;52593;42.648;23.332;2023-01-25T08:01:09;9.90;;;4.03;;
65831;SDS011;52593;42.648;23.332;2023-01-25T08:03:37;10.15;;;3.97;;
65831;SDS011;52593;42.648;23.332;2023-01-25T08:06:03;10.25;;;4.03;;
65831;SDS011;52593;42.648;23.332;2023-01-25T08:08:30;11.20;;;4.45;;
65831;SDS011;52593;42.648;23.332;2023-01-25T08:11:00;10.10;;;4.03;;
65831;SDS011;52593;42.648;23.332;2023-01-25T08:13:31;10.55;;;4.18;;
65831;SDS011;52593;42.648;23.332;2023-01-25T08:15:57;10.55;;;4.40;;
65831;SDS011;52593;42.648;23.332;2023-01-25T08:18:22;15.87;;;6.10;;
65831;SDS011;52593;42.648;23.332;2023-01-25T08:20:49;12.77;;;5.28;;
65831;SDS011;52593;42.648;23.332;2023-01-25T08:23:15;13.60;;;5.07;;
65831;SDS011;52593;42.648;23.332;2023-01-25T08:25:40;11.93;;;4.60;;
65831;SDS011;52593;42.648;23.332;2023-01-25T08:28:06;15.67;;;6.00;;
65831;SDS011;52593;42.648;23.332;2023-01-25T08:30:32;13.87;;;5.10;;
65831;SDS011;52593;42.648;23.332;2023-01-25T08:32:58;14.45;;;5.28;;
65831;SDS011;52593;42.648;23.332;2023-01-25T08:35:23;15.68;;;6.40;;
65831;SDS011;52593;42.648;23.332;2023-01-25T08:37:49;17.30;;;6.90;;
65831;SDS011;52593;42.648;23.332;2023-01-25T08:40:14;17.27;;;6.37;;
65831;SDS011;52593;42.648;23.332;2023-01-25T08:42:39;12.53;;;5.63;;
65831;SDS011;52593;42.648;23.332;2023-01-25T08:45:07;13.85;;;5.35;;
65831;SDS011;52593;42.648;23.332;2023-01-25T08:47:33;13.63;;;5.47;;
65831;SDS011;52593;42.648;23.332;2023-01-25T08:49:58;11.43;;;5.33;;
65831;SDS011;52593;42.648;23.332;2023-01-25T08:52:25;12.43;;;4.93;;
65831;SDS011;52593;42.648;23.332;2023-01-25T08:54:50;13.03;;;4.97;;
65831;SDS011;52593;42.648;23.332;2023-01-25T08:57:16;12.60;;;5.13;;
65831;SDS011;52593;42.648;23.332;2023-01-25T08:59:41;12.77;;;5.43;;
65831;SDS011;52593;42.648;23.332;2023-01-25T09:02:08;12.10;;;5.43;;
65831;SDS011;52593;42.648;23.332;2023-01-25T09:04:36;12.68;;;5.18;;
65831;SDS011;52593;42.648;23.332;2023-01-25T09:07:01;11.80;;;5.30;;
65831;SDS011;52593;42.648;23.332;2023-01-25T09:09:27;12.97;;;5.47;;
65831;SDS011;52593;42.648;23.332;2023-01-25T09:11:54;13.27;;;6.03;;
65831;SDS011;52593;42.648;23.332;2023-01-25T09:14:19;12.02;;;5.07;;
65831;SDS011;52593;42.648;23.332;2023-01-25T09:16:46;12.45;;;5.70;;
65831;SDS011;52593;42.648;23.332;2023-01-25T09:19:11;13.17;;;5.80;;
65831;SDS011;52593;42.648;23.332;2023-01-25T09:21:37;12.27;;;5.28;;
65831;SDS011;52593;42.648;23.332;2023-01-25T09:24:03;12.37;;;5.27;;
65831;SDS011;52593;42.648;23.332;2023-01-25T09:26:29;11.25;;;5.03;;
65831;SDS011;52593;42.648;23.332;2023-01-25T09:28:56;10.93;;;4.32;;
65831;SDS011;52593;42.648;23.332;2023-01-25T09:31:21;11.90;;;4.97;;
65831;SDS011;52593;42.648;23.332;2023-01-25T09:33:48;12.48;;;5.22;;
65831;SDS011;52593;42.648;23.332;2023-01-25T09:36:14;11.40;;;4.53;;
65831;SDS011;52593;42.648;23.332;2023-01-25T09:38:40;12.85;;;5.10;;
65831;SDS011;52593;42.648;23.332;2023-01-25T09:49:12;13.65;;;6.15;;
65831;SDS011;52593;42.648;23.332;2023-01-25T09:54:27;17.10;;;6.78;;
65831;SDS011;52593;42.648;23.332;2023-01-25T09:56:55;17.05;;;7.63;;
65831;SDS011;52593;42.648;23.332;2023-01-25T09:59:23;16.27;;;6.07;;
65831;SDS011;52593;42.648;23.332;2023-01-25T10:01:59;14.57;;;6.45;;
65831;SDS011;52593;42.648;23.332;2023-01-25T10:04:49;11.25;;;5.32;;
65831;SDS011;52593;42.648;23.332;2023-01-25T10:07:21;10.77;;;5.53;;
65831;SDS011;52593;42.648;23.332;2023-01-25T10:10:05;12.55;;;5.78;;
65831;SDS011;52593;42.648;23.332;2023-01-25T10:12:36;14.20;;;5.60;;
65831;SDS011;52593;42.648;23.332;2023-01-25T10:15:11;11.35;;;5.28;;
65831;SDS011;52593;42.648;23.332;2023-01-25T10:17:42;13.05;;;5.47;;
65831;SDS011;52593;42.648;23.332;2023-01-25T10:20:20;10.77;;;4.90;;
65831;SDS011;52593;42.648;23.332;2023-01-25T10:23:21;13.30;;;5.27;;
65831;SDS011;52593;42.648;23.332;2023-01-25T10:31:37;13.63;;;5.88;;
65831;SDS011;52593;42.648;23.332;2023-01-25T10:34:11;12.05;;;5.72;;
65831;SDS011;52593;42.648;23.332;2023-01-25T10:36:42;14.60;;;6.03;;
65831;SDS011;52593;42.648;23.332;2023-01-25T10:39:12;14.10;;;5.60;;
65831;SDS011;52593;42.648;23.332;2023-01-25T10:41:38;12.80;;;5.70;;
65831;SDS011;52593;42.648;23.332;2023-01-25T10:44:09;12.07;;;5.05;;
65831;SDS011;52593;42.648;23.332;2023-01-25T10:52:24;11.95;;;4.95;;
65831;SDS011;52593;42.648;23.332;2023-01-25T10:55:06;10.37;;;4.70;;
65831;SDS011;52593;42.648;23.332;2023-01-25T10:57:41;8.48;;;4.10;;
65831;SDS011;52593;42.648;23.332;2023-01-25T11:00:18;11.07;;;4.45;;
65831;SDS011;52593;42.648;23.332;2023-01-25T11:02:49;9.45;;;4.00;;
65831;SDS011;52593;42.648;23.332;2023-01-25T11:07:46;11.18;;;4.70;;
65831;SDS011;52593;42.648;23.332;2023-01-25T11:10:32;10.50;;;4.75;;
65831;SDS011;52593;42.648;23.332;2023-01-25T11:15:43;10.07;;;4.37;;
65831;SDS011;52593;42.648;23.332;2023-01-25T11:18:21;7.35;;;2.92;;
65831;SDS011;52593;42.648;23.332;2023-01-25T11:21:05;6.68;;;2.95;;
65831;SDS011;52593;42.648;23.332;2023-01-25T11:23:36;9.93;;;4.05;;
65831;SDS011;52593;42.648;23.332;2023-01-25T11:28:37;10.00;;;4.18;;
65831;SDS011;52593;42.648;23.332;2023-01-25T11:31:04;10.07;;;4.38;;
65831;SDS011;52593;42.648;23.332;2023-01-25T11:33:34;12.32;;;4.85;;
65831;SDS011;52593;42.648;23.332;2023-01-25T11:38:51;10.10;;;3.20;;
65831;SDS011;52593;42.648;23.332;2023-01-25T11:44:39;8.02;;;3.45;;
65831;SDS011;52593;42.648;23.332;2023-01-25T11:47:21;8.90;;;3.67;;
65831;SDS011;52593;42.648;23.332;2023-01-25T11:50:01;10.85;;;3.78;;
65831;SDS011;52593;42.648;23.332;2023-01-25T11:58:14;9.18;;;3.65;;
65831;SDS011;52593;42.648;23.332;2023-01-25T12:00:45;8.95;;;4.25;;
65831;SDS011;52593;42.648;23.332;2023-01-25T12:08:41;8.63;;;4.13;;
65831;SDS011;52593;42.648;23.332;2023-01-25T12:25:20;8.85;;;3.90;;
65831;SDS011;52593;42.648;23.332;2023-01-25T12:30:25;7.70;;;3.00;;
65831;SDS011;52593;42.648;23.332;2023-01-25T12:36:00;9.30;;;3.77;;
65831;SDS011;52593;42.648;23.332;2023-01-25T12:38:41;8.70;;;3.78;;
65831;SDS011;52593;42.648;23.332;2023-01-25T12:42:01;9.05;;;3.95;;
65831;SDS011;52593;42.648;23.332;2023-01-25T12:49:05;8.83;;;3.87;;
65831;SDS011;52593;42.648;23.332;2023-01-25T12:51:39;11.18;;;4.10;;
65831;SDS011;52593;42.648;23.332;2023-01-25T12:54:11;9.50;;;4.18;;
65831;SDS011;52593;42.648;23.332;2023-01-25T12:56:48;9.02;;;4.22;;
65831;SDS011;52593;42.648;23.332;2023-01-25T13:02:33;10.33;;;4.07;;
65831;SDS011;52593;42.648;23.332;2023-01-25T13:08:10;10.02;;;4.53;;
65831;SDS011;52593;42.648;23.332;2023-01-25T13:11:24;8.60;;;4.07;;
65831;SDS011;52593;42.648;23.332;2023-01-25T13:13:49;8.50;;;3.33;;
65831;SDS011;52593;42.648;23.332;2023-01-25T13:16:22;9.50;;;3.27;;
65831;SDS011;52593;42.648;23.332;2023-01-25T13:18:54;8.40;;;3.85;;
65831;SDS011;52593;42.648;23.332;2023-01-25T13:24:28;8.63;;;3.47;;
65831;SDS011;52593;42.648;23.332;2023-01-25T13:32:13;8.02;;;3.42;;
65831;SDS011;52593;42.648;23.332;2023-01-25T13:37:18;8.52;;;3.85;;
65831;SDS011;52593;42.648;23.332;2023-01-25T13:39:51;7.97;;;3.50;;
65831;SDS011;52593;42.648;23.332;2023-01-25T13:42:22;9.15;;;3.92;;
65831;SDS011;52593;42.648;23.332;2023-01-25T13:44:53;9.52;;;4.22;;
65831;SDS011;52593;42.648;23.332;2023-01-25T13:47:22;9.57;;;3.92;;
65831;SDS011;52593;42.648;23.332;2023-01-25T13:52:27;10.40;;;4.30;;
65831;SDS011;52593;42.648;23.332;2023-01-25T13:54:55;10.50;;;4.00;;
65831;SDS011;52593;42.648;23.332;2023-01-25T13:59:58;9.50;;;4.13;;
65831;SDS011;52593;42.648;23.332;2023-01-25T14:02:24;9.57;;;3.70;;
65831;SDS011;52593;42.648;23.332;2023-01-25T14:04:51;11.07;;;5.03;;
65831;SDS011;52593;42.648;23.332;2023-01-25T14:07:18;10.00;;;3.83;;
65831;SDS011;52593;42.648;23.332;2023-01-25T14:09:49;7.95;;;3.08;;
65831;SDS011;52593;42.648;23.332;2023-01-25T14:12:48;12.02;;;4.50;;
65831;SDS011;52593;42.648;23.332;2023-01-25T14:15:27;9.68;;;4.20;;
65831;SDS011;52593;42.648;23.332;2023-01-25T14:20:41;9.90;;;4.18;;
65831;SDS011;52593;42.648;23.332;2023-01-25T14:23:27;8.77;;;3.58;;
65831;SDS011;52593;42.648;23.332;2023-01-25T14:25:55;6.10;;;2.85;;
65831;SDS011;52593;42.648;23.332;2023-01-25T14:28:23;10.50;;;4.40;;
65831;SDS011;52593;42.648;23.332;2023-01-25T14:30:53;10.37;;;5.00;;
65831;SDS011;52593;42.648;23.332;2023-01-25T14:33:22;12.73;;;5.18;;
65831;SDS011;52593;42.648;23.332;2023-01-25T14:35:52;11.85;;;4.60;;
65831;SDS011;52593;42.648;23.332;2023-01-25T14:38:22;10.85;;;4.85;;
65831;SDS011;52593;42.648;23.332;2023-01-25T14:44:01;11.17;;;5.27;;
65831;SDS011;52593;42.648;23.332;2023-01-25T14:46:30;12.70;;;5.07;;
65831;SDS011;52593;42.648;23.332;2023-01-25T14:51:58;13.77;;;5.60;;
65831;SDS011;52593;42.648;23.332;2023-01-25T14:54:28;16.60;;;6.03;;
65831;SDS011;52593;42.648;23.332;2023-01-25T14:56:57;12.53;;;5.90;;
65831;SDS011;52593;42.648;23.332;2023-01-25T14:59:43;14.27;;;5.20;;
65831;SDS011;52593;42.648;23.332;2023-01-25T15:02:22;7.38;;;3.00;;
65831;SDS011;52593;42.648;23.332;2023-01-25T15:12:39;11.33;;;4.13;;
65831;SDS011;52593;42.648;23.332;2023-01-25T15:15:18;16.60;;;6.18;;
65831;SDS011;52593;42.648;23.332;2023-01-25T15:17:46;12.00;;;4.70;;
65831;SDS011;52593;42.648;23.332;2023-01-25T15:20:26;12.55;;;4.82;;
65831;SDS011;52593;42.648;23.332;2023-01-25T15:23:19;12.80;;;5.05;;
65831;SDS011;52593;42.648;23.332;2023-01-25T15:25:51;11.07;;;3.78;;
65831;SDS011;52593;42.648;23.332;2023-01-25T15:28:18;16.38;;;5.80;;
65831;SDS011;52593;42.648;23.332;2023-01-25T15:30:43;12.30;;;4.93;;
65831;SDS011;52593;42.648;23.332;2023-01-25T15:33:26;12.32;;;4.35;;
65831;SDS011;52593;42.648;23.332;2023-01-25T15:35:53;10.30;;;3.73;;
65831;SDS011;52593;42.648;23.332;2023-01-25T15:38:19;13.27;;;4.60;;
65831;SDS011;52593;42.648;23.332;2023-01-25T15:40:46;12.50;;;4.72;;
65831;SDS011;52593;42.648;23.332;2023-01-25T15:43:13;15.57;;;5.22;;
65831;SDS011;52593;42.648;23.332;2023-01-25T15:45:41;14.80;;;5.13;;
65831;SDS011;52593;42.648;23.332;2023-01-25T15:48:15;12.77;;;4.73;;
65831;SDS011;52593;42.648;23.332;2023-01-25T15:50:42;14.07;;;4.85;;
65831;SDS011;52593;42.648;23.332;2023-01-25T15:53:14;14.67;;;5.33;;
65831;SDS011;52593;42.648;23.332;2023-01-25T15:55:41;18.38;;;6.85;;
65831;SDS011;52593;42.648;23.332;2023-01-25T15:58:11;12.63;;;5.22;;
65831;SDS011;52593;42.648;23.332;2023-01-25T16:00:43;13.15;;;3.92;;
65831;SDS011;52593;42.648;23.332;2023-01-25T16:03:09;8.30;;;3.20;;
65831;SDS011;52593;42.648;23.332;2023-01-25T16:05:34;11.40;;;4.93;;
65831;SDS011;52593;42.648;23.332;2023-01-25T16:08:00;13.02;;;5.00;;
65831;SDS011;52593;42.648;23.332;2023-01-25T16:10:26;12.40;;;4.70;;
65831;SDS011;52593;42.648;23.332;2023-01-25T16:12:51;11.95;;;4.60;;
65831;SDS011;52593;42.648;23.332;2023-01-25T16:15:17;12.57;;;4.53;;
65831;SDS011;52593;42.648;23.332;2023-01-25T16:17:42;13.27;;;4.80;;
65831;SDS011;52593;42.648;23.332;2023-01-25T16:20:18;11.80;;;4.80;;
65831;SDS011;52593;42.648;23.332;2023-01-25T16:22:45;12.27;;;3.70;;
65831;SDS011;52593;42.648;23.332;2023-01-25T16:25:11;13.82;;;4.63;;
65831;SDS011;52593;42.648;23.332;2023-01-25T16:27:37;12.52;;;5.05;;
65831;SDS011;52593;42.648;23.332;2023-01-25T16:30:02;10.80;;;4.30;;
65831;SDS011;52593;42.648;23.332;2023-01-25T16:32:29;12.18;;;4.20;;
65831;SDS011;52593;42.648;23.332;2023-01-25T16:34:54;12.80;;;4.80;;
65831;SDS011;52593;42.648;23.332;2023-01-25T16:37:19;15.03;;;4.93;;
65831;SDS011;52593;42.648;23.332;2023-01-25T16:39:45;13.90;;;4.60;;
65831;SDS011;52593;42.648;23.332;2023-01-25T16:42:10;17.10;;;4.73;;
65831;SDS011;52593;42.648;23.332;2023-01-25T16:44:36;13.50;;;4.43;;